Puspokladany, Hungary
Current Conditions -  °F | °C
As of 10:45 AM on Thursday 23 Oct 2014 (Local Time) from LHDC Reporting Station
Overcast Overcast  
Wind Chill: 43°   Ceiling: 3000
Heat Index: 46°   Visibility: 5mi
Dew Point: 45°   Wind: 7mph
Humidity: 93%   Direction: 50°NE
Pressure: 29.71"   Gusts: NA
Location:  47.32°N, 21.12°E
Report Text: LHDC 230845Z 05006KT 8000 SCT005 OVC030 08/07 Q1006 RERA NOSIG
Loading
Personal Weather Stations






























Interactive Weather Map
Tropical Storm Tracking
New forecast layout! Learn more

10-Day Weather Forecast

Advertisements
Track Severe Weather on mobile